Time;durP1;ratioP1;P1;durP2;ratioP2;P2;SDS_P1;SDS_P2;PMS_P1;PMS_P2;Temp;Humidity;BMP_temperature;BMP_pressure;BME280_temperature;BME280_humidity;BME280_pressure;Samples;Min_cycle;Max_cycle;Signal;HPM_P1;HPM_P2
2023/01/11 00:01:37;;;;;;;;;0.67;0.00;;;;;13.14;77.69;100749.72;5096700;27;45594;-66
2023/01/11 00:04:03;;;;;;;;;0.00;0.00;;;;;13.25;77.43;100780.28;5085096;27;45521;-66
2023/01/11 00:06:28;;;;;;;;;0.00;0.00;;;;;13.24;78.02;100770.44;5077387;27;45626;-66
2023/01/11 00:08:55;;;;;;;;;0.00;0.00;;;;;13.24;77.93;100769.53;5096174;27;45409;-65
2023/01/11 00:11:20;;;;;;;;;2.00;1.00;;;;;13.26;78.17;100767.78;5094578;27;46201;-65
2023/01/11 00:13:46;;;;;;;;;1.33;0.00;;;;;13.25;77.60;100774.03;5103012;27;45654;-66
2023/01/11 00:16:12;;;;;;;;;1.00;1.00;;;;;13.25;78.71;100779.41;5094550;27;45600;-66
2023/01/11 00:18:37;;;;;;;;;0.00;0.00;;;;;13.23;78.81;100776.69;5089559;27;45497;-66
2023/01/11 00:21:04;;;;;;;;;0.00;0.00;;;;;13.24;78.49;100761.50;5102226;27;45370;-66
2023/01/11 00:23:34;;;;;;;;;1.00;1.00;;;;;13.23;79.30;100765.03;5099573;27;45892;-66
2023/01/11 00:26:10;;;;;;;;;1.00;1.00;;;;;13.21;78.44;100756.97;5095901;27;45434;-66
2023/01/11 00:28:35;;;;;;;;;1.00;1.00;;;;;13.22;78.92;100757.88;5102727;27;45424;-65
2023/01/11 00:31:01;;;;;;;;;0.67;0.00;;;;;13.18;78.79;100745.28;5083465;27;46480;-65
2023/01/11 00:33:26;;;;;;;;;0.00;0.00;;;;;13.21;79.05;100754.28;5095445;27;45465;-66
2023/01/11 00:35:53;;;;;;;;;1.00;1.00;;;;;13.22;78.69;100753.41;5095929;27;45375;-67
2023/01/11 00:49:16;;;;;;;;;2.33;0.00;;;;;13.16;79.42;100734.53;5085314;27;45286;-66
2023/01/11 00:51:41;;;;;;;;;0.33;0.33;;;;;13.17;79.80;100728.31;5090001;27;46319;-66
2023/01/11 00:54:06;;;;;;;;;2.00;0.00;;;;;13.15;79.30;100732.75;5100349;27;45847;-66
2023/01/11 00:56:32;;;;;;;;;1.00;1.00;;;;;13.07;79.60;100705.78;5095380;27;48006;-66
2023/01/11 00:58:57;;;;;;;;;0.00;0.00;;;;;13.14;80.37;100720.19;5087264;27;45704;-66
2023/01/11 01:01:23;;;;;;;;;0.00;0.00;;;;;13.10;80.59;100713.00;5093666;27;45482;-66
2023/01/11 01:03:49;;;;;;;;;1.33;1.33;;;;;13.13;80.64;100709.44;5091228;27;59003;-65
2023/01/11 01:06:15;;;;;;;;;0.00;0.00;;;;;13.14;79.98;100717.50;5102146;27;45356;-64
2023/01/11 01:08:40;;;;;;;;;0.00;0.00;;;;;13.14;79.88;100732.72;5086436;27;45471;-64
2023/01/11 01:11:06;;;;;;;;;0.00;0.00;;;;;13.07;80.33;100711.16;5099149;27;46118;-64
2023/01/11 01:16:15;;;;;;;;;1.00;0.00;;;;;13.09;80.46;100719.22;5087493;27;45866;-64
2023/01/11 01:18:40;;;;;;;;;0.33;0.33;;;;;13.07;80.65;100713.84;5093226;27;45463;-67
2023/01/11 01:21:06;;;;;;;;;0.67;0.00;;;;;13.03;80.89;100703.03;5092064;27;45456;-66
2023/01/11 01:23:32;;;;;;;;;0.00;0.00;;;;;13.11;81.47;100713.91;5093919;27;46004;-65
2023/01/11 01:26:02;;;;;;;;;0.00;0.00;;;;;12.78;81.12;100656.16;5094471;27;46371;-65
2023/01/11 01:28:27;;;;;;;;;0.00;0.00;;;;;13.09;81.16;100697.78;5091472;27;45513;-66
2023/01/11 01:30:53;;;;;;;;;1.00;0.33;;;;;13.12;80.98;100700.50;5093505;27;45447;-65
2023/01/11 01:33:18;;;;;;;;;0.00;0.00;;;;;13.09;80.70;100693.31;5087470;27;52147;-66
2023/01/11 01:35:43;;;;;;;;;0.00;0.00;;;;;13.04;80.78;100673.56;5090968;27;45539;-66
2023/01/11 01:38:09;;;;;;;;;0.00;0.00;;;;;13.09;81.05;100687.03;5094160;27;45328;-65
2023/01/11 01:40:40;;;;;;;;;0.33;0.00;;;;;13.13;80.97;100680.84;5092261;27;53685;-66
2023/01/11 01:43:10;;;;;;;;;0.00;0.00;;;;;13.15;80.68;100678.16;5094520;27;46611;-67
2023/01/11 01:45:35;;;;;;;;;0.00;0.00;;;;;13.16;81.05;100685.34;5094362;27;45394;-66
2023/01/11 01:48:02;;;;;;;;;0.00;0.00;;;;;13.18;81.22;100680.91;5094422;27;45978;-67
2023/01/11 01:50:35;;;;;;;;;0.00;0.00;;;;;13.05;81.43;100672.69;5087993;27;45385;-65
2023/01/11 01:53:10;;;;;;;;;0.00;0.00;;;;;13.16;81.55;100677.31;5099627;27;45486;-65
2023/01/11 01:55:42;;;;;;;;;0.00;0.00;;;;;13.15;82.15;100683.53;5091379;27;45463;-65
2023/01/11 01:58:17;;;;;;;;;0.00;0.00;;;;;13.14;81.33;100688.00;5110519;27;45463;-66
2023/01/11 02:00:45;;;;;;;;;1.00;0.00;;;;;13.03;81.83;100669.09;5116883;27;45193;-65
2023/01/11 02:03:15;;;;;;;;;0.00;0.00;;;;;13.12;81.12;100675.47;5116792;27;45124;-67
2023/01/11 02:05:40;;;;;;;;;1.00;1.00;;;;;13.15;81.35;100687.16;5119591;27;45083;-66
2023/01/11 02:08:12;;;;;;;;;0.00;0.00;;;;;13.15;82.04;100684.47;5114902;27;45082;-64
2023/01/11 02:10:38;;;;;;;;;1.00;0.00;;;;;13.14;81.64;100695.16;5116905;27;45453;-66
2023/01/11 02:13:07;;;;;;;;;0.00;0.00;;;;;13.12;81.32;100687.09;5113743;27;45799;-67
2023/01/11 02:15:33;;;;;;;;;0.00;0.00;;;;;13.15;81.49;100683.53;5115019;27;44985;-66
2023/01/11 02:17:58;;;;;;;;;0.00;0.00;;;;;13.15;80.89;100692.50;5113996;27;45147;-65
2023/01/11 02:20:39;;;;;;;;;0.00;0.00;;;;;13.21;81.41;100697.94;5116610;27;45245;-64
2023/01/11 02:23:48;;;;;;;;;0.00;0.00;;;;;13.22;80.91;100694.38;5114234;27;46846;-66
2023/01/11 02:26:45;;;;;;;;;0.00;0.00;;;;;13.22;81.07;100694.38;5114735;27;45119;-65
2023/01/11 02:29:29;;;;;;;;;0.00;0.00;;;;;13.25;80.99;100696.22;5116169;27;45124;-66
2023/01/11 02:32:12;;;;;;;;;0.00;0.00;;;;;13.20;80.22;100687.19;5115916;27;45110;-66
2023/01/11 02:34:58;;;;;;;;;0.00;0.00;;;;;13.24;80.40;100694.41;5115687;27;45460;-66
2023/01/11 02:37:39;;;;;;;;;0.00;0.00;;;;;13.18;80.98;100673.78;5111655;27;45087;-65
2023/01/11 02:40:23;;;;;;;;;0.00;0.00;;;;;13.28;80.44;100683.75;5120820;27;45507;-64
2023/01/11 02:45:55;;;;;;;;;0.00;0.00;;;;;13.33;79.75;100680.25;5096705;27;45207;-66
2023/01/11 02:48:58;;;;;;;;;0.00;0.00;;;;;13.32;80.42;100674.00;5119619;27;45195;-66
2023/01/11 02:51:42;;;;;;;;;1.00;0.00;;;;;13.32;80.39;100676.69;5062089;28;45141;-65
2023/01/11 02:54:10;;;;;;;;;0.00;0.00;;;;;13.33;80.61;100681.19;5106709;27;45123;-65
2023/01/11 02:56:44;;;;;;;;;1.00;0.00;;;;;13.21;80.07;100665.75;5112013;27;45791;-66
2023/01/11 02:59:16;;;;;;;;;0.00;0.00;;;;;13.35;80.00;100676.72;5105978;27;45174;-65
2023/01/11 03:01:46;;;;;;;;;0.00;0.00;;;;;13.36;79.86;100681.19;5115951;27;45037;-65
2023/01/11 03:04:32;;;;;;;;;0.00;0.00;;;;;13.26;80.15;100656.00;5115944;27;45030;-66
2023/01/11 03:07:12;;;;;;;;;0.00;0.00;;;;;13.35;80.41;100663.31;5110336;27;46133;-66
2023/01/11 03:09:59;;;;;;;;;0.00;0.00;;;;;13.37;80.08;100672.28;5108650;27;45187;-65
2023/01/11 03:12:50;;;;;;;;;0.00;0.00;;;;;13.40;80.06;100674.13;5112100;27;45043;-66
2023/01/11 03:15:16;;;;;;;;;0.00;0.00;;;;;13.43;79.87;100660.75;5114378;27;45113;-67
2023/01/11 03:17:47;;;;;;;;;0.00;0.00;;;;;13.42;79.54;100667.88;5115182;27;46046;-65
2023/01/11 03:20:15;;;;;;;;;0.00;0.00;;;;;13.43;79.73;100658.06;5114924;27;45111;-65
2023/01/11 03:22:49;;;;;;;;;0.00;0.00;;;;;13.45;79.34;100661.66;5114015;27;45027;-65
2023/01/11 03:25:27;;;;;;;;;0.00;0.00;;;;;13.45;79.74;100664.34;5109583;27;45138;-66
2023/01/11 03:28:16;;;;;;;;;0.00;0.00;;;;;13.45;79.37;100662.53;5108773;27;46364;-66
2023/01/11 03:30:57;;;;;;;;;0.00;0.00;;;;;13.48;79.90;100661.69;5110399;27;44982;-65
2023/01/11 03:33:31;;;;;;;;;0.00;0.00;;;;;13.50;79.53;100669.78;5119400;27;45108;-65
2023/01/11 03:36:08;;;;;;;;;1.00;0.00;;;;;13.51;79.77;100679.59;5102735;27;45023;-64
2023/01/11 03:39:05;;;;;;;;;0.00;0.00;;;;;13.50;80.07;100667.97;5116352;27;45780;-65
2023/01/11 03:41:37;;;;;;;;;0.00;0.00;;;;;13.50;80.29;100669.78;5111604;27;44928;-65
2023/01/11 03:44:06;;;;;;;;;0.00;0.00;;;;;13.49;80.43;100673.31;5115092;27;44997;-65
2023/01/11 03:46:52;;;;;;;;;0.00;0.00;;;;;13.47;80.90;100667.03;5120315;27;45137;-64
2023/01/11 03:49:40;;;;;;;;;1.00;0.00;;;;;13.41;80.46;100658.03;5110411;27;45968;-65
2023/01/11 03:52:10;;;;;;;;;0.00;0.00;;;;;13.35;81.38;100659.75;5110689;27;45191;-65
2023/01/11 03:54:36;;;;;;;;;0.00;0.00;;;;;13.45;81.18;100669.72;5109401;27;45227;-66
2023/01/11 03:57:04;;;;;;;;;0.00;0.00;;;;;13.44;81.56;100682.19;5112433;27;45033;-65
2023/01/11 03:59:30;;;;;;;;;1.00;0.00;;;;;13.45;81.43;100675.97;5110068;27;45652;-65
2023/01/11 04:01:57;;;;;;;;;0.00;0.00;;;;;13.44;81.81;100684.88;5110377;27;45246;-66
2023/01/11 04:04:23;;;;;;;;;0.00;0.00;;;;;13.44;82.03;100686.69;5092568;27;45148;-67
2023/01/11 04:06:48;;;;;;;;;0.00;0.00;;;;;13.44;82.05;100679.50;5116314;27;45424;-67
2023/01/11 04:09:14;;;;;;;;;0.00;0.00;;;;;13.44;81.84;100681.31;5118277;27;45426;-67
2023/01/11 04:11:39;;;;;;;;;0.00;0.00;;;;;13.45;81.34;100685.81;5110988;27;45375;-67
2023/01/11 04:14:04;;;;;;;;;0.00;0.00;;;;;13.34;81.93;100669.53;5092652;27;46503;-66
2023/01/11 04:16:30;;;;;;;;;0.00;0.00;;;;;13.41;81.72;100695.59;5109367;27;45354;-66
2023/01/11 04:18:55;;;;;;;;;0.00;0.00;;;;;13.34;81.28;100672.22;5111492;27;45099;-66
2023/01/11 04:21:21;;;;;;;;;0.00;0.00;;;;;13.41;81.47;100687.56;5102409;27;45425;-64
2023/01/11 04:23:46;;;;;;;;;0.00;0.00;;;;;13.38;81.60;100668.72;5118844;27;44973;-66
2023/01/11 04:26:12;;;;;;;;;0.00;0.00;;;;;13.39;81.67;100665.13;5102670;27;44914;-65
2023/01/11 04:28:37;;;;;;;;;0.00;0.00;;;;;13.43;82.15;100677.72;5103271;27;46685;-65
2023/01/11 04:31:02;;;;;;;;;0.00;0.00;;;;;13.44;82.13;100674.16;5110902;27;56066;-67
2023/01/11 04:33:28;;;;;;;;;0.00;0.00;;;;;13.41;81.96;100681.25;5104525;27;45565;-66
2023/01/11 04:35:53;;;;;;;;;0.00;0.00;;;;;13.45;81.33;100694.75;5110699;27;48632;-66
2023/01/11 04:38:18;;;;;;;;;1.00;0.00;;;;;13.45;82.08;100697.44;5124404;27;45468;-66
2023/01/11 04:40:44;;;;;;;;;0.00;0.00;;;;;13.46;81.64;100701.00;5109404;27;45186;-66
2023/01/11 04:43:09;;;;;;;;;0.33;0.00;;;;;13.47;81.73;100708.19;5113522;27;45021;-67
2023/01/11 04:45:34;;;;;;;;;0.00;0.00;;;;;13.47;81.57;100710.88;5126264;27;45116;-66
2023/01/11 04:48:00;;;;;;;;;0.00;0.00;;;;;13.46;81.72;100709.06;5113172;27;45048;-66
2023/01/11 04:50:26;;;;;;;;;0.00;0.00;;;;;13.43;81.52;100704.56;5112255;27;45157;-66
2023/01/11 04:52:52;;;;;;;;;0.00;0.00;;;;;13.47;81.82;100718.94;5110599;27;44989;-66
2023/01/11 04:55:18;;;;;;;;;0.00;0.00;;;;;13.48;81.82;100743.97;5111882;27;45151;-67
2023/01/11 04:57:45;;;;;;;;;0.00;0.00;;;;;13.49;81.52;100740.44;5108979;27;45140;-66
2023/01/11 05:00:11;;;;;;;;;0.00;0.00;;;;;13.45;80.96;100743.06;5116937;27;45063;-66
2023/01/11 05:02:37;;;;;;;;;0.33;0.00;;;;;13.44;79.90;100753.78;5107856;27;45373;-66
2023/01/11 05:05:04;;;;;;;;;0.00;0.00;;;;;13.52;79.22;100757.47;5109023;27;45429;-66
2023/01/11 05:07:30;;;;;;;;;0.00;0.00;;;;;13.57;78.28;100762.91;5108396;27;45179;-66
2023/01/11 05:09:55;;;;;;;;;0.00;0.00;;;;;13.59;78.09;100769.19;5113333;27;45077;-66
2023/01/11 05:12:20;;;;;;;;;1.00;0.00;;;;;13.57;77.58;100769.16;5111604;27;45315;-66
2023/01/11 05:14:46;;;;;;;;;0.00;0.00;;;;;13.53;76.88;100782.50;5107462;27;45350;-66
2023/01/11 05:17:13;;;;;;;;;0.00;0.00;;;;;13.48;77.05;100781.56;5115144;27;46266;-66
2023/01/11 05:19:39;;;;;;;;;0.00;0.00;;;;;13.47;76.81;100790.50;5111642;27;45265;-66
2023/01/11 05:22:04;;;;;;;;;0.00;0.00;;;;;13.38;76.43;100775.13;5111382;27;45495;-67
2023/01/11 05:24:30;;;;;;;;;1.67;0.00;;;;;13.43;76.62;100787.78;5106568;27;45408;-66
2023/01/11 05:26:55;;;;;;;;;0.00;0.00;;;;;13.43;76.78;100794.94;5105389;27;45348;-67
2023/01/11 05:29:20;;;;;;;;;1.33;0.00;;;;;13.49;77.44;100795.00;5110339;27;45163;-66
2023/01/11 05:31:46;;;;;;;;;0.00;0.00;;;;;13.52;77.60;100804.88;5115292;27;45327;-66
2023/01/11 05:34:13;;;;;;;;;1.00;1.00;;;;;13.53;77.31;100804.00;5110816;27;45485;-66
2023/01/11 05:36:39;;;;;;;;;0.67;0.00;;;;;13.58;77.27;100818.41;5130892;27;45667;-66
2023/01/11 05:39:05;;;;;;;;;0.00;0.00;;;;;13.61;76.78;100827.41;5123563;27;45103;-65
2023/01/11 05:41:31;;;;;;;;;0.00;0.00;;;;;13.62;76.80;100833.66;5111605;27;45217;-67
2023/01/11 05:46:42;;;;;;;;;4.67;2.00;;;;;13.66;77.40;100840.00;5115142;27;44986;-67
2023/01/11 05:49:09;;;;;;;;;2.33;1.33;;;;;13.70;76.69;100847.22;5111878;27;45309;-66
2023/01/11 05:51:36;;;;;;;;;2.00;2.00;;;;;13.65;76.69;100849.84;5118273;27;46289;-66
2023/01/11 05:54:04;;;;;;;;;0.67;0.00;;;;;13.67;76.13;100850.75;5110975;27;44948;-65
2023/01/11 05:56:30;;;;;;;;;1.33;0.00;;;;;13.66;75.26;100853.41;5106255;27;45442;-65
2023/01/11 05:58:55;;;;;;;;;2.00;0.00;;;;;13.59;75.00;100839.88;5104429;27;45446;-65
2023/01/11 06:01:22;;;;;;;;;0.00;0.00;;;;;13.60;74.94;100852.44;5111573;27;45116;-65
2023/01/11 06:03:48;;;;;;;;;2.33;0.33;;;;;13.58;74.66;100853.31;5103376;27;45134;-65
2023/01/11 06:06:14;;;;;;;;;2.00;0.67;;;;;13.57;74.45;100868.50;5109039;27;45583;-67
2023/01/11 06:08:40;;;;;;;;;1.67;0.00;;;;;13.50;73.51;100866.59;5111599;27;45104;-66
2023/01/11 06:11:05;;;;;;;;;1.00;1.00;;;;;13.39;73.15;100865.50;5109846;27;45456;-65
2023/01/11 06:13:32;;;;;;;;;0.00;0.00;;;;;13.24;73.21;100858.06;5110412;27;45278;-65
2023/01/11 06:15:59;;;;;;;;;0.00;0.00;;;;;13.20;73.33;100873.22;5108630;27;45768;-66
2023/01/11 06:18:24;;;;;;;;;6.67;0.67;;;;;13.09;72.86;100866.75;5099490;27;45328;-65
2023/01/11 06:20:52;;;;;;;;;2.00;0.00;;;;;13.02;73.19;100889.88;5109572;27;45064;-66
2023/01/11 06:23:17;;;;;;;;;4.33;2.67;;;;;12.99;73.86;100889.81;5093436;27;45377;-65
2023/01/11 06:25:44;;;;;;;;;2.00;2.00;;;;;12.95;73.78;100898.69;5107483;27;45924;-66
2023/01/11 06:28:10;;;;;;;;;1.00;1.00;;;;;12.79;73.74;100885.88;5106409;27;44980;-66
2023/01/11 06:30:35;;;;;;;;;4.00;1.67;;;;;12.83;73.67;100901.13;5103787;27;45592;-66
2023/01/11 06:33:05;;;;;;;;;2.33;0.33;;;;;12.83;74.83;100906.50;5101223;27;45093;-66
2023/01/11 06:35:41;;;;;;;;;1.67;0.00;;;;;12.82;73.92;100910.03;5110508;27;45638;-66
2023/01/11 06:38:09;;;;;;;;;0.33;0.33;;;;;12.82;73.34;100905.59;5111787;27;47326;-67
2023/01/11 06:40:35;;;;;;;;;7.33;1.67;;;;;12.84;74.17;100911.88;5113876;27;45245;-67
2023/01/11 06:43:01;;;;;;;;;3.33;2.00;;;;;12.84;73.61;100929.75;5108583;27;44972;-67
2023/01/11 06:45:26;;;;;;;;;2.00;0.00;;;;;12.85;73.64;100931.56;5116178;27;45742;-66
2023/01/11 06:47:52;;;;;;;;;3.00;1.67;;;;;12.73;73.24;100926.84;5115728;27;45189;-67
2023/01/11 06:50:17;;;;;;;;;4.00;2.00;;;;;12.75;73.37;100949.22;5112877;27;44951;-66
2023/01/11 06:52:50;;;;;;;;;3.00;1.33;;;;;12.66;73.36;100938.34;5113680;27;45342;-66
2023/01/11 06:55:15;;;;;;;;;1.67;1.00;;;;;12.61;74.22;100932.88;5095580;27;46347;-68
2023/01/11 06:57:41;;;;;;;;;3.00;0.00;;;;;12.68;73.30;100948.19;5077650;27;46380;-66
2023/01/11 07:00:07;;;;;;;;;7.00;2.00;;;;;12.61;75.19;100938.22;5094293;27;45601;-65
2023/01/11 07:02:32;;;;;;;;;3.67;2.00;;;;;12.68;74.30;100960.72;5097490;27;45744;-67
2023/01/11 07:04:58;;;;;;;;;2.00;0.33;;;;;12.64;74.36;100948.13;5094044;27;45874;-66
2023/01/11 07:07:23;;;;;;;;;5.67;2.00;;;;;12.67;74.78;100959.81;5095662;27;45629;-68
2023/01/11 07:09:48;;;;;;;;;2.00;2.00;;;;;12.64;74.43;100950.81;5097147;27;45564;-69
2023/01/11 07:12:14;;;;;;;;;2.00;1.33;;;;;12.66;74.39;100960.66;5096311;27;45817;-67
2023/01/11 07:14:39;;;;;;;;;3.67;3.00;;;;;12.64;73.94;100957.06;5093080;27;46229;-67
2023/01/11 07:17:05;;;;;;;;;3.33;2.33;;;;;12.66;73.79;100966.03;5098188;27;45908;-66
2023/01/11 07:19:30;;;;;;;;;7.33;2.00;;;;;12.65;73.68;100958.84;5087920;27;45504;-65
2023/01/11 07:21:55;;;;;;;;;5.67;4.00;;;;;12.35;74.06;100917.13;5084672;27;45693;-67
2023/01/11 07:24:23;;;;;;;;;5.00;3.00;;;;;12.62;74.53;100966.84;5090055;27;45660;-67
2023/01/11 07:26:48;;;;;;;;;2.67;2.67;;;;;12.64;74.57;100966.88;5101006;27;45416;-66
2023/01/11 07:29:13;;;;;;;;;7.67;3.00;;;;;12.64;73.75;100962.44;5075937;27;45615;-67
2023/01/11 07:31:39;;;;;;;;;3.00;1.33;;;;;12.63;74.59;100965.06;5095558;27;45796;-67
2023/01/11 07:34:04;;;;;;;;;2.33;2.33;;;;;12.49;74.29;100954.06;5089482;27;46087;-67
2023/01/11 07:36:29;;;;;;;;;3.00;1.00;;;;;12.49;73.88;100968.34;5095335;27;45510;-68
2023/01/11 07:38:55;;;;;;;;;4.00;1.33;;;;;12.55;74.19;100997.06;5100188;27;45465;-67
2023/01/11 07:44:05;;;;;;;;;3.00;2.00;;;;;12.52;73.75;100997.91;5096879;27;45617;-67
2023/01/11 07:46:30;;;;;;;;;1.00;1.00;;;;;12.51;73.65;101004.13;5096434;27;45653;-67
2023/01/11 07:48:55;;;;;;;;;2.00;2.00;;;;;12.50;73.68;101012.13;5095507;27;45489;-68
2023/01/11 07:51:24;;;;;;;;;7.00;4.00;;;;;12.44;73.79;101020.94;5097388;27;45550;-66
2023/01/11 07:53:49;;;;;;;;;4.33;2.00;;;;;12.36;73.55;101019.88;5096596;27;46523;-65
2023/01/11 07:56:15;;;;;;;;;4.00;3.00;;;;;12.39;72.88;101043.13;5093869;27;45432;-66
2023/01/11 07:58:40;;;;;;;;;3.00;2.00;;;;;12.30;73.07;101047.41;5077488;27;45440;-70
2023/01/11 08:01:06;;;;;;;;;6.00;2.00;;;;;12.31;73.49;101049.22;5091267;27;45515;-67
2023/01/11 08:03:32;;;;;;;;;4.67;1.67;;;;;12.30;73.70;101058.13;5108379;27;46131;-64
2023/01/11 08:05:57;;;;;;;;;4.00;1.00;;;;;12.29;73.65;101064.34;5106044;27;45003;-66
2023/01/11 08:08:23;;;;;;;;;8.33;4.00;;;;;12.30;72.90;101058.13;5089553;27;45697;-66
2023/01/11 08:14:38;;;;;;;;;1.00;1.00;;;;;12.29;73.01;101063.44;5100146;27;45488;-68
2023/01/11 08:16:22;;;;;;;;;3.00;2.33;;;;;12.19;72.55;101074.78;5112290;27;47006;-67
2023/01/11 08:18:50;;;;;;;;;4.33;0.67;;;;;12.23;71.48;101090.09;5100725;27;45335;-67
2023/01/11 08:21:16;;;;;;;;;3.67;2.00;;;;;12.22;72.26;101097.19;5101734;27;45393;-67
2023/01/11 08:23:41;;;;;;;;;5.33;3.00;;;;;12.19;72.90;101091.75;5102697;27;45600;-67
2023/01/11 08:26:07;;;;;;;;;4.67;2.00;;;;;12.13;72.41;101080.91;5098069;27;45374;-67
2023/01/11 08:28:32;;;;;;;;;3.67;2.33;;;;;12.23;72.72;101099.03;5095777;27;45475;-67
2023/01/11 08:30:57;;;;;;;;;1.67;1.00;;;;;12.25;72.28;101099.97;5090916;27;45597;-65
2023/01/11 08:33:23;;;;;;;;;5.67;3.00;;;;;12.22;72.89;101102.56;5101648;27;46629;-66
2023/01/11 08:35:49;;;;;;;;;6.00;3.00;;;;;12.23;72.17;101117.78;5077371;27;45579;-66
2023/01/11 08:38:14;;;;;;;;;3.00;2.00;;;;;12.12;72.36;101119.28;5094352;27;45554;-66
2023/01/11 08:50:45;;;;;;;;;1.00;1.00;;;;;12.03;72.21;101135.09;5088001;27;45608;-67
2023/01/11 08:53:11;;;;;;;;;8.67;4.00;;;;;11.99;72.89;101131.44;5094100;27;45399;-66
2023/01/11 08:55:36;;;;;;;;;4.00;2.67;;;;;12.03;72.24;101132.41;5099321;27;46020;-66
2023/01/11 08:58:01;;;;;;;;;6.67;5.67;;;;;12.07;73.22;101145.94;5075174;27;45816;-66
2023/01/11 09:00:27;;;;;;;;;5.00;1.67;;;;;12.07;72.71;101139.69;5089947;27;45485;-65
2023/01/11 09:02:52;;;;;;;;;4.33;2.00;;;;;12.08;72.51;101139.72;5118186;27;45156;-66
2023/01/11 09:05:18;;;;;;;;;3.67;2.00;;;;;12.08;71.42;101144.19;5109890;27;45900;-66
2023/01/11 09:07:44;;;;;;;;;7.00;5.33;;;;;12.09;71.53;101154.94;5115228;27;45047;-66
2023/01/11 09:10:10;;;;;;;;;4.00;2.00;;;;;12.10;71.71;101162.09;5111668;27;45097;-67
2023/01/11 09:12:35;;;;;;;;;3.00;3.00;;;;;12.17;71.40;101171.19;5094431;27;45150;-66
2023/01/11 09:15:01;;;;;;;;;11.67;4.00;;;;;12.24;71.02;101166.91;5108656;27;45733;-71
2023/01/11 09:17:27;;;;;;;;;3.00;2.00;;;;;12.27;70.26;101165.19;5091561;27;45563;-67
2023/01/11 09:19:52;;;;;;;;;5.33;2.00;;;;;12.19;70.32;101153.38;5074977;27;45579;-66
2023/01/11 09:22:18;;;;;;;;;4.33;2.67;;;;;12.29;70.09;101175.94;5084835;27;45453;-67
2023/01/11 09:24:43;;;;;;;;;2.33;2.33;;;;;12.30;69.01;101180.47;5088313;27;46827;-67
2023/01/11 09:27:10;;;;;;;;;4.00;1.00;;;;;12.35;69.88;101187.75;5091782;27;45468;-68
2023/01/11 09:29:36;;;;;;;;;3.00;1.00;;;;;12.34;68.49;101195.72;5086296;27;46381;-65
2023/01/11 09:32:01;;;;;;;;;5.33;1.33;;;;;12.32;68.93;101200.16;5080225;27;46850;-64
2023/01/11 09:34:26;;;;;;;;;8.00;3.00;;;;;12.29;68.76;101200.06;5088841;27;45402;-67
2023/01/11 09:36:53;;;;;;;;;5.00;3.00;;;;;12.27;67.91;101189.31;5099351;27;45540;-66
2023/01/11 09:39:22;;;;;;;;;2.33;2.33;;;;;12.24;67.95;101199.97;5093864;27;45434;-67
2023/01/11 09:42:16;;;;;;;;;6.33;3.00;;;;;12.21;67.97;101209.66;5079284;27;45675;-66
2023/01/11 09:44:59;;;;;;;;;0.00;0.00;;;;;12.16;67.49;101215.81;5064504;27;46421;-65
2023/01/11 09:47:45;;;;;;;;;2.00;1.67;;;;;12.10;67.43;101215.66;5088653;27;45537;-65
2023/01/11 09:50:20;;;;;;;;;1.00;1.00;;;;;12.06;67.22;101210.16;5091393;27;45544;-66
2023/01/11 09:52:52;;;;;;;;;3.33;2.00;;;;;12.09;67.99;101221.91;5086605;27;45489;-68
2023/01/11 09:55:26;;;;;;;;;1.67;1.67;;;;;12.09;67.67;101235.28;5091765;27;45698;-65
2023/01/11 09:58:07;;;;;;;;;3.00;2.00;;;;;12.10;67.23;101245.09;5094711;27;45578;-66
2023/01/11 10:00:35;;;;;;;;;6.00;2.67;;;;;12.08;66.24;101238.81;5086449;27;45631;-66
2023/01/11 10:03:19;;;;;;;;;2.00;1.67;;;;;12.02;66.11;101243.09;5087136;27;45910;-66
2023/01/11 10:06:07;;;;;;;;;8.67;2.00;;;;;11.95;66.93;101250.94;5092579;27;46341;-64
2023/01/11 10:08:58;;;;;;;;;1.00;1.00;;;;;11.97;66.10;101256.34;5094411;27;45484;-66
2023/01/11 10:11:50;;;;;;;;;5.00;2.00;;;;;11.94;66.96;101261.59;5091021;27;45570;-64
2023/01/11 10:14:37;;;;;;;;;3.00;3.00;;;;;11.95;65.70;101263.44;5069185;27;45465;-64
2023/01/11 10:17:21;;;;;;;;;2.33;1.33;;;;;11.94;66.61;101273.22;5068192;27;46497;-65
2023/01/11 10:19:56;;;;;;;;;0.00;0.00;;;;;11.96;65.57;101251.84;5069578;27;45406;-65
2023/01/11 10:22:31;;;;;;;;;4.00;2.00;;;;;12.04;65.81;101265.47;5067104;27;45548;-64
2023/01/11 10:25:09;;;;;;;;;5.33;3.67;;;;;12.09;66.33;101255.78;5069426;27;45405;-65
2023/01/11 10:27:55;;;;;;;;;4.67;2.33;;;;;12.09;65.43;101267.44;5067749;27;46363;-65
2023/01/11 10:30:51;;;;;;;;;4.67;4.00;;;;;12.00;64.29;101239.47;5072108;27;45592;-66
2023/01/11 10:40:16;;;;;;;;;3.67;2.33;;;;;12.27;65.04;101282.19;5076441;27;45416;-66
2023/01/11 10:42:23;;;;;;;;;5.00;3.00;;;;;12.34;65.38;101273.44;5085746;27;45324;-66
2023/01/11 10:45:01;;;;;;;;;7.67;4.00;;;;;12.32;64.84;101257.34;5089207;27;45504;-66
2023/01/11 10:47:38;;;;;;;;;6.67;4.00;;;;;12.40;64.63;101262.00;5076852;27;45620;-66
2023/01/11 10:50:18;;;;;;;;;4.33;3.00;;;;;12.50;64.09;101269.41;5078126;27;47006;-66
2023/01/11 10:52:59;;;;;;;;;3.67;2.00;;;;;12.48;63.59;101263.09;5097726;27;45245;-65
2023/01/11 10:55:53;;;;;;;;;3.33;3.33;;;;;12.48;63.88;101274.72;5097593;27;44954;-66
2023/01/11 10:58:40;;;;;;;;;7.33;4.00;;;;;12.56;64.43;101288.34;5084670;27;45058;-66
2023/01/11 11:01:27;;;;;;;;;4.00;1.00;;;;;12.63;63.77;101301.03;5088641;27;46576;-66
2023/01/11 11:04:01;;;;;;;;;2.33;1.33;;;;;12.70;63.77;101300.34;5067448;27;45664;-66
2023/01/11 11:06:34;;;;;;;;;3.00;2.00;;;;;12.71;63.78;101296.78;5071254;27;45706;-67
2023/01/11 11:09:18;;;;;;;;;4.00;3.00;;;;;12.72;63.43;101295.03;5075016;27;45589;-64
2023/01/11 11:11:51;;;;;;;;;7.00;4.00;;;;;12.81;62.81;101295.25;5081169;27;45458;-67
2023/01/11 11:14:35;;;;;;;;;3.00;1.00;;;;;12.80;61.83;101308.63;5083057;27;45646;-66
2023/01/11 11:17:14;;;;;;;;;2.33;1.33;;;;;12.80;62.08;101303.25;5094315;27;45668;-66
2023/01/11 11:19:39;;;;;;;;;3.33;3.00;;;;;12.84;62.72;101305.16;5094577;27;45592;-67
2023/01/11 11:22:06;;;;;;;;;2.00;2.00;;;;;12.84;62.73;101303.38;5109551;27;46051;-65
2023/01/11 11:24:37;;;;;;;;;8.00;2.33;;;;;12.83;62.55;101296.19;5080853;27;45459;-65
2023/01/11 11:27:15;;;;;;;;;4.33;3.33;;;;;12.91;62.38;101310.72;5093465;27;45486;-66
2023/01/11 11:29:42;;;;;;;;;5.33;3.00;;;;;12.94;61.89;101307.22;5091957;27;45720;-68
2023/01/11 11:32:19;;;;;;;;;5.33;1.67;;;;;12.91;60.82;101309.81;5094545;27;46597;-65
2023/01/11 11:34:47;;;;;;;;;7.00;4.00;;;;;13.01;61.99;101316.31;5094265;27;45578;-65
2023/01/11 11:37:22;;;;;;;;;5.33;3.67;;;;;13.00;61.48;101307.38;5099651;27;45483;-66
2023/01/11 11:39:50;;;;;;;;;3.33;3.00;;;;;12.94;61.09;101296.47;5121779;27;45349;-68
2023/01/11 11:42:16;;;;;;;;;8.00;2.00;;;;;13.05;61.22;101319.13;5097148;27;46135;-67
2023/01/11 11:44:42;;;;;;;;;3.33;2.00;;;;;13.02;60.62;101312.78;5097077;27;45543;-68
2023/01/11 11:47:15;;;;;;;;;5.67;2.00;;;;;12.98;61.12;101316.25;5097918;27;45989;-67
2023/01/11 11:49:41;;;;;;;;;8.33;2.33;;;;;12.91;60.51;101315.19;5099273;27;45601;-68
2023/01/11 11:52:14;;;;;;;;;6.00;1.67;;;;;12.90;60.91;101319.63;5100083;27;45625;-67
2023/01/11 11:54:47;;;;;;;;;3.33;2.00;;;;;12.90;60.31;101319.63;5107967;27;45545;-68
2023/01/11 11:57:20;;;;;;;;;3.67;1.00;;;;;12.96;60.31;101313.50;5092975;27;45580;-66
2023/01/11 11:59:49;;;;;;;;;4.67;3.00;;;;;13.01;60.79;101316.31;5072462;27;45610;-66
2023/01/11 12:02:29;;;;;;;;;5.00;5.00;;;;;12.95;59.90;101311.72;5098003;27;46548;-66
2023/01/11 12:04:57;;;;;;;;;4.50;2.00;;;;;13.05;60.20;101313.75;5093861;27;45261;-65
2023/01/11 12:07:27;;;;;;;;;6.33;4.00;;;;;13.09;60.09;101304.91;5098186;27;45698;-66
2023/01/11 12:10:04;;;;;;;;;7.33;6.00;;;;;13.18;59.71;101314.97;5094428;27;45357;-67
2023/01/11 12:12:32;;;;;;;;;4.33;4.33;;;;;13.24;59.53;101312.44;5098955;27;46777;-65
2023/01/11 12:15:28;;;;;;;;;4.67;2.33;;;;;13.30;59.18;101309.00;5077484;27;45688;-68
2023/01/11 12:17:55;;;;;;;;;4.00;3.00;;;;;13.35;58.93;101293.94;5076609;27;45421;-65
2023/01/11 12:20:20;;;;;;;;;2.00;2.00;;;;;13.43;58.37;101300.41;5077829;27;45541;-66